Terminal Aerodrome Forecast
Issued by NWS Cleveland, OH

Home | Current Version | Previous Version | Text Only | Print | Product List | Glossary Off
Versions: 1 2 3 4 5 6 7 8 9 10 11 12 13 14 15 16 17

000
FTUS41 KCLE 100521
TAFMFD
TAF
KMFD 100521Z 1006/1106 25010KT P6SM OVC015
      TEMPO 1006/1008 6SM BR OVC010
     FM101600 23012G20KT P6SM OVC050
     FM110400 26008KT P6SM BKN025=

USA.gov is the U.S. government's official web portal to all federal, state and local government web resources and services.